Time;durP1;ratioP1;P1;durP2;ratioP2;P2;SDS_P1;SDS_P2;PMS_P1;PMS_P2;Temp;Humidity;BMP_temperature;BMP_pressure;BME280_temperature;BME280_humidity;BME280_pressure;Samples;Min_cycle;Max_cycle;Signal;HPM_P1;HPM_P2
2021/12/08 00:00:27;;;;;;;3.17;1.52;;;4.90;70.30;;;;;;4994406;28;20030;-79
2021/12/08 00:02:55;;;;;;;2.50;1.33;;;4.80;70.50;;;;;;4994409;28;20037;-82
2021/12/08 00:05:22;;;;;;;2.13;1.33;;;4.70;71.60;;;;;;4994336;28;20133;-83
2021/12/08 00:07:49;;;;;;;7.72;1.85;;;4.70;72.00;;;;;;4993678;28;20035;-84
2021/12/08 00:10:39;;;;;;;4.28;1.88;;;4.60;72.50;;;;;;4994431;28;20022;-83
2021/12/08 00:13:07;;;;;;;2.63;1.67;;;4.50;72.10;;;;;;4993862;28;20038;-82
2021/12/08 00:15:38;;;;;;;2.88;1.23;;;4.50;72.60;;;;;;4993481;28;20507;-80
2021/12/08 00:18:07;;;;;;;8.40;1.65;;;4.60;72.20;;;;;;4994146;28;20038;-83
2021/12/08 00:20:35;;;;;;;2.53;1.42;;;4.50;73.40;;;;;;4993670;28;20038;-81
2021/12/08 00:23:03;;;;;;;2.05;1.27;;;4.40;73.40;;;;;;4993839;28;20061;-81
2021/12/08 00:25:31;;;;;;;2.30;1.38;;;4.30;73.80;;;;;;4993469;28;20054;-82
2021/12/08 00:27:58;;;;;;;2.42;1.25;;;4.30;75.40;;;;;;4993993;28;20130;-82
2021/12/08 00:30:25;;;;;;;2.38;1.27;;;4.20;75.70;;;;;;4994270;28;20464;-84
2021/12/08 00:32:52;;;;;;;2.40;1.20;;;4.20;75.70;;;;;;4993073;28;20042;-82
2021/12/08 00:35:19;;;;;;;3.17;1.48;;;4.20;76.00;;;;;;4993344;28;20034;-82
2021/12/08 00:37:46;;;;;;;4.80;1.15;;;4.10;76.60;;;;;;4993262;28;20034;-83
2021/12/08 00:40:15;;;;;;;6.88;6.20;;;4.10;76.70;;;;;;5000769;28;20144;-81
2021/12/08 00:42:42;;;;;;;7.45;4.03;;;4.10;77.10;;;;;;5002635;28;20026;-82
2021/12/08 00:45:10;;;;;;;25.92;14.63;;;4.10;76.70;;;;;;4997797;28;20387;-84
2021/12/08 00:47:37;;;;;;;31.90;20.35;;;4.20;76.30;;;;;;4997042;28;20039;-82
2021/12/08 00:50:10;;;;;;;20.08;12.77;;;4.20;77.40;;;;;;4997747;28;20030;-83
2021/12/08 00:52:37;;;;;;;2.22;1.65;;;4.20;76.90;;;;;;4997057;28;20026;-81
2021/12/08 00:55:05;;;;;;;11.07;9.98;;;4.20;76.90;;;;;;4996974;28;20375;-85
2021/12/08 00:57:32;;;;;;;73.10;50.25;;;4.20;75.60;;;;;;4996363;28;20455;-80
2021/12/08 01:00:00;;;;;;;58.45;37.53;;;4.40;74.50;;;;;;4995592;28;20034;-83
2021/12/08 01:02:26;;;;;;;34.63;24.02;;;4.40;74.10;;;;;;4996213;28;20061;-83
2021/12/08 01:04:52;;;;;;;37.78;24.02;;;4.50;74.10;;;;;;4995429;28;20485;-82
2021/12/08 01:07:19;;;;;;;31.40;19.90;;;4.50;73.80;;;;;;4978070;28;20041;-84
2021/12/08 01:09:46;;;;;;;13.70;5.47;;;4.50;74.90;;;;;;4995242;28;20375;-83
2021/12/08 01:12:13;;;;;;;23.70;16.20;;;4.40;75.70;;;;;;4995859;28;20030;-82
2021/12/08 01:14:39;;;;;;;48.55;26.85;;;4.40;75.10;;;;;;4994915;28;20057;-83
2021/12/08 01:17:06;;;;;;;73.20;54.55;;;4.30;75.70;;;;;;4993078;28;20046;-84
2021/12/08 01:19:33;;;;;;;38.50;28.63;;;4.30;76.70;;;;;;4994307;28;20022;-86
2021/12/08 01:21:59;;;;;;;3.70;2.72;;;4.30;76.20;;;;;;4994005;28;20033;-84
2021/12/08 01:24:26;;;;;;;8.27;4.88;;;4.30;75.40;;;;;;4992932;28;20050;-83
2021/12/08 01:26:54;;;;;;;13.20;10.82;;;4.30;76.80;;;;;;4992956;28;20030;-80
2021/12/08 01:29:21;;;;;;;22.42;14.73;;;4.20;76.80;;;;;;4993327;28;20042;-82
2021/12/08 01:31:47;;;;;;;45.35;32.97;;;4.20;78.40;;;;;;4992746;28;20033;-81
2021/12/08 01:34:13;;;;;;;28.83;23.27;;;4.10;80.30;;;;;;4993230;28;20031;-81
2021/12/08 01:36:41;;;;;;;15.60;9.55;;;4.00;80.50;;;;;;4992314;28;20034;-81
2021/12/08 01:39:08;;;;;;;7.50;5.10;;;3.90;80.80;;;;;;4975378;28;20042;-80
2021/12/08 01:41:35;;;;;;;3.90;1.83;;;3.90;80.30;;;;;;4993786;28;20041;-81
2021/12/08 01:46:49;;;;;;;2.78;1.92;;;3.80;81.90;;;;;;5017562;28;20042;-79
2021/12/08 01:49:15;;;;;;;7.30;6.40;;;3.80;82.90;;;;;;5005541;28;20053;-79
2021/12/08 01:51:41;;;;;;;4.72;3.28;;;3.70;83.30;;;;;;4996487;28;20062;-82
2021/12/08 01:54:08;;;;;;;7.18;6.20;;;3.70;84.10;;;;;;4997982;28;20041;-81
2021/12/08 01:56:35;;;;;;;9.45;2.28;;;3.70;84.10;;;;;;4997267;28;20444;-81
2021/12/08 01:59:04;;;;;;;3.95;3.50;;;3.60;84.00;;;;;;4997217;28;20041;-82
2021/12/08 02:01:32;;;;;;;4.45;3.40;;;3.60;84.70;;;;;;4997112;28;20034;-82
2021/12/08 02:04:03;;;;;;;8.63;6.43;;;3.60;85.20;;;;;;4978720;28;20061;-83
2021/12/08 02:06:32;;;;;;;16.40;13.43;;;3.60;85.70;;;;;;4997251;28;20046;-83
2021/12/08 02:08:58;;;;;;;7.85;4.35;;;3.60;86.50;;;;;;4996507;28;20459;-81
2021/12/08 02:11:25;;;;;;;7.18;4.65;;;3.60;88.00;;;;;;4996802;28;20050;-83
2021/12/08 02:13:58;;;;;;;17.05;11.68;;;3.60;89.20;;;;;;4996451;28;20062;-82
2021/12/08 02:16:24;;;;;;;5.07;4.03;;;3.50;90.10;;;;;;4999629;28;20418;-81
2021/12/08 02:18:52;;;;;;;2.60;1.52;;;3.50;90.60;;;;;;4996961;28;20034;-82
2021/12/08 02:21:37;;;;;;;5.70;4.18;;;3.50;90.90;;;;;;4996664;28;20031;-82
2021/12/08 02:24:09;;;;;;;3.40;1.50;;;3.50;90.70;;;;;;4996379;28;20037;-81
2021/12/08 02:26:36;;;;;;;9.82;6.05;;;3.50;90.70;;;;;;4996052;28;20418;-80
2021/12/08 02:29:08;;;;;;;9.35;5.43;;;3.60;90.30;;;;;;4995637;28;20046;-83
2021/12/08 02:31:44;;;;;;;1.65;1.45;;;3.60;90.50;;;;;;4996222;28;20053;-80
2021/12/08 02:48:08;;;;;;;5.47;2.33;;;3.70;90.80;;;;;;4962858;28;20038;-82
2021/12/08 02:50:38;;;;;;;3.80;3.47;;;3.80;91.00;;;;;;4978187;28;20053;-82
2021/12/08 02:53:06;;;;;;;8.93;6.63;;;3.80;90.90;;;;;;4995726;28;20031;-82
2021/12/08 02:55:33;;;;;;;3.78;2.58;;;3.80;91.10;;;;;;4995598;28;20038;-83
2021/12/08 02:58:01;;;;;;;3.70;1.88;;;3.80;91.20;;;;;;4993970;28;20053;-82
2021/12/08 03:00:30;;;;;;;7.25;4.55;;;3.90;91.20;;;;;;4995325;28;20037;-82
2021/12/08 03:02:59;;;;;;;7.18;5.68;;;3.90;91.30;;;;;;4994610;28;20035;-80
2021/12/08 03:05:26;;;;;;;1.90;1.33;;;3.90;91.20;;;;;;4995091;28;20049;-80
2021/12/08 03:07:53;;;;;;;3.30;2.22;;;3.90;91.30;;;;;;4994601;28;20035;-80
2021/12/08 03:10:23;;;;;;;4.40;2.72;;;3.90;91.40;;;;;;4995187;28;20050;-80
2021/12/08 03:12:50;;;;;;;3.00;2.65;;;3.90;91.60;;;;;;4995228;28;20030;-83
2021/12/08 03:15:16;;;;;;;14.80;9.60;;;3.90;91.60;;;;;;4995645;28;20073;-81
2021/12/08 03:17:44;;;;;;;11.57;9.40;;;3.90;91.50;;;;;;4994264;28;20038;-83
2021/12/08 03:20:15;;;;;;;4.15;3.00;;;3.90;91.60;;;;;;4995715;28;20037;-84
2021/12/08 03:22:45;;;;;;;4.65;4.15;;;3.90;92.00;;;;;;4977291;28;20043;-79
2021/12/08 03:25:16;;;;;;;7.43;6.70;;;3.90;92.10;;;;;;4977772;28;20045;-80
2021/12/08 03:28:03;;;;;;;3.63;3.10;;;3.90;91.90;;;;;;4994862;28;20039;-82
2021/12/08 03:30:35;;;;;;;18.15;13.52;;;3.90;92.00;;;;;;4994498;28;20050;-82
2021/12/08 03:33:02;;;;;;;8.27;7.45;;;3.80;92.10;;;;;;4994262;28;20039;-81
2021/12/08 03:35:28;;;;;;;25.55;19.50;;;3.80;92.10;;;;;;4994729;28;20057;-82
2021/12/08 03:37:54;;;;;;;39.05;29.73;;;3.80;92.00;;;;;;4994505;28;20041;-82
2021/12/08 03:40:24;;;;;;;12.50;8.85;;;3.80;92.20;;;;;;4994836;28;20033;-83
2021/12/08 03:42:53;;;;;;;6.38;4.07;;;3.80;92.20;;;;;;4994715;28;20031;-82
2021/12/08 03:45:26;;;;;;;20.85;14.90;;;3.80;92.00;;;;;;4994601;28;20051;-81
2021/12/08 03:48:00;;;;;;;5.25;2.80;;;3.90;92.10;;;;;;4994120;28;20030;-81
2021/12/08 03:50:27;;;;;;;6.03;5.25;;;3.80;92.10;;;;;;4994757;28;20035;-81
2021/12/08 03:52:53;;;;;;;10.05;5.82;;;3.80;92.30;;;;;;4993654;28;20133;-82
2021/12/08 03:55:20;;;;;;;18.83;15.13;;;3.90;92.30;;;;;;4994410;28;20042;-82
2021/12/08 03:57:46;;;;;;;8.52;7.72;;;3.90;92.30;;;;;;4993652;28;20479;-82
2021/12/08 04:00:19;;;;;;;5.72;3.67;;;3.90;92.20;;;;;;4994643;28;20046;-83
2021/12/08 04:02:46;;;;;;;22.95;16.90;;;3.90;92.30;;;;;;4993555;28;20030;-82
2021/12/08 04:05:19;;;;;;;18.98;12.13;;;3.90;92.30;;;;;;4994201;28;20046;-83
2021/12/08 04:07:52;;;;;;;13.90;8.88;;;3.90;92.40;;;;;;4992845;28;20049;-82
2021/12/08 04:10:20;;;;;;;23.60;16.17;;;3.90;92.40;;;;;;4993999;28;20034;-80
2021/12/08 04:12:53;;;;;;;60.72;39.88;;;3.90;92.20;;;;;;4993823;28;20034;-78
2021/12/08 04:15:22;;;;;;;9.43;7.00;;;3.90;92.30;;;;;;4994373;28;20070;-80
2021/12/08 04:17:51;;;;;;;8.32;6.32;;;3.90;92.30;;;;;;4993222;28;20057;-80
2021/12/08 04:20:26;;;;;;;8.40;5.32;;;3.90;92.40;;;;;;4994078;28;20045;-81
2021/12/08 04:22:56;;;;;;;7.55;5.30;;;3.90;92.50;;;;;;4993492;28;20030;-81
2021/12/08 04:25:31;;;;;;;13.57;9.90;;;3.90;92.70;;;;;;4993621;28;20038;-82
2021/12/08 04:27:59;;;;;;;29.20;26.08;;;3.90;92.70;;;;;;4993150;28;20038;-82
2021/12/08 04:30:32;;;;;;;5.30;4.20;;;3.90;92.70;;;;;;4993708;28;20030;-83
2021/12/08 04:32:59;;;;;;;25.55;19.48;;;3.90;92.50;;;;;;4993225;28;20037;-82
2021/12/08 04:35:26;;;;;;;5.47;4.40;;;3.90;92.60;;;;;;4993572;28;20030;-82
2021/12/08 04:37:57;;;;;;;5.57;4.03;;;3.90;92.60;;;;;;4992925;28;20037;-82
2021/12/08 04:40:57;;;;;;;3.28;2.90;;;3.80;92.70;;;;;;4993344;28;20041;-81
2021/12/08 04:43:30;;;;;;;17.55;8.95;;;3.80;92.80;;;;;;4993133;28;20042;-81
2021/12/08 04:46:17;;;;;;;29.90;24.13;;;3.80;93.20;;;;;;4992597;28;20062;-82
2021/12/08 05:03:01;;;;;;;7.78;5.50;;;3.90;93.40;;;;;;4992450;28;20045;-82
2021/12/08 05:08:15;;;;;;;1.60;1.30;;;3.80;93.40;;;;;;4951694;28;20042;-83
2021/12/08 05:10:42;;;;;;;3.17;1.60;;;3.80;93.50;;;;;;4992962;28;20030;-82
2021/12/08 05:13:12;;;;;;;42.58;37.35;;;3.80;93.50;;;;;;4992185;28;20038;-81
2021/12/08 05:15:46;;;;;;;6.25;5.60;;;3.80;93.80;;;;;;4993136;28;20042;-75
2021/12/08 05:18:15;;;;;;;41.33;33.28;;;3.80;93.90;;;;;;4992442;28;20128;-81
2021/12/08 05:20:47;;;;;;;18.88;15.23;;;3.70;94.00;;;;;;4992220;28;20419;-82
2021/12/08 05:23:22;;;;;;;16.25;12.65;;;3.80;94.00;;;;;;4994840;28;20038;-83
2021/12/08 05:25:50;;;;;;;18.48;14.35;;;3.80;94.10;;;;;;5005645;28;20035;-79
2021/12/08 05:28:20;;;;;;;21.42;15.85;;;3.80;94.20;;;;;;4992715;28;20041;-81
2021/12/08 05:30:52;;;;;;;11.60;5.50;;;3.80;94.20;;;;;;4992569;28;20046;-82
2021/12/08 05:33:19;;;;;;;78.40;46.40;;;3.80;94.60;;;;;;4992867;28;20277;-82
2021/12/08 05:35:46;;;;;;;50.90;32.53;;;3.80;94.50;;;;;;4998375;28;20046;-83
2021/12/08 05:38:16;;;;;;;106.43;64.75;;;3.70;94.70;;;;;;5011478;28;20467;-81
2021/12/08 05:40:51;;;;;;;48.77;32.00;;;3.70;94.90;;;;;;4989059;28;20031;-82
2021/12/08 05:43:18;;;;;;;135.27;84.18;;;3.70;95.10;;;;;;5009964;28;20277;-84
2021/12/08 05:45:46;;;;;;;100.07;62.78;;;3.70;95.40;;;;;;5024016;28;20041;-82
2021/12/08 05:48:13;;;;;;;112.18;74.63;;;3.70;95.50;;;;;;5035543;28;20021;-83
2021/12/08 05:51:03;;;;;;;93.05;61.58;;;3.70;95.60;;;;;;5018402;28;20025;-82
2021/12/08 05:53:30;;;;;;;59.13;36.05;;;3.70;96.00;;;;;;5012691;28;20045;-84
2021/12/08 05:55:57;;;;;;;7.78;6.03;;;3.70;96.40;;;;;;5008194;28;20026;-83
2021/12/08 05:58:25;;;;;;;7.97;7.22;;;3.80;96.30;;;;;;4992540;28;20460;-84
2021/12/08 06:01:00;;;;;;;8.88;7.55;;;3.80;96.40;;;;;;4991588;28;20034;-82
2021/12/08 06:03:27;;;;;;;13.43;10.15;;;3.80;96.70;;;;;;4993177;28;20487;-84
2021/12/08 06:05:55;;;;;;;5.50;3.03;;;3.80;96.80;;;;;;4991688;28;20034;-82
2021/12/08 06:08:22;;;;;;;2.47;2.28;;;3.80;97.10;;;;;;4992547;28;20372;-82
2021/12/08 06:10:49;;;;;;;4.10;3.08;;;3.90;96.90;;;;;;4992421;28;20030;-82
2021/12/08 06:13:17;;;;;;;3.05;2.47;;;3.90;97.00;;;;;;4991198;28;20042;-82
2021/12/08 06:15:46;;;;;;;6.97;4.82;;;3.90;97.20;;;;;;4993968;28;20050;-82
2021/12/08 06:18:13;;;;;;;8.57;7.78;;;3.80;97.50;;;;;;5011131;28;20033;-82
2021/12/08 06:20:40;;;;;;;6.57;5.93;;;3.80;97.90;;;;;;5011965;28;20038;-83
2021/12/08 06:23:08;;;;;;;22.60;17.38;;;3.70;98.30;;;;;;5011400;28;20045;-85
2021/12/08 06:25:36;;;;;;;14.77;8.52;;;3.80;98.90;;;;;;5011292;28;20050;-85
2021/12/08 06:28:04;;;;;;;11.40;9.77;;;3.80;99.20;;;;;;4993783;28;20053;-84
2021/12/08 06:30:33;;;;;;;5.65;3.38;;;3.80;99.40;;;;;;5011677;28;20037;-84
2021/12/08 06:32:59;;;;;;;3.30;3.03;;;3.80;99.60;;;;;;5014558;28;20026;-84
2021/12/08 06:35:37;;;;;;;5.93;4.85;;;3.80;99.80;;;;;;4998010;28;20042;-84
2021/12/08 06:38:05;;;;;;;5.50;3.63;;;3.80;99.90;;;;;;5015153;28;20045;-84
2021/12/08 06:40:34;;;;;;;7.07;4.88;;;3.80;99.90;;;;;;5015289;28;20041;-84
2021/12/08 06:43:04;;;;;;;8.25;6.63;;;3.80;99.90;;;;;;5014475;28;20494;-83
2021/12/08 06:45:36;;;;;;;6.15;4.75;;;3.90;99.90;;;;;;5014663;28;20058;-83
2021/12/08 06:48:07;;;;;;;6.47;4.80;;;3.90;99.90;;;;;;5014857;28;20026;-83
2021/12/08 06:50:41;;;;;;;7.05;6.38;;;3.90;99.90;;;;;;4998431;28;20042;-83
2021/12/08 06:53:07;;;;;;;6.95;5.75;;;3.90;99.90;;;;;;5014340;28;20033;-83
2021/12/08 06:55:58;;;;;;;4.82;4.30;;;3.90;99.90;;;;;;5015058;28;20042;-83
2021/12/08 06:58:28;;;;;;;4.63;4.15;;;3.80;99.90;;;;;;5015009;28;20038;-83
2021/12/08 07:01:35;;;;;;;4.57;3.70;;;3.80;99.90;;;;;;5014295;28;20025;-81
2021/12/08 07:04:26;;;;;;;9.15;4.72;;;3.70;99.90;;;;;;5003848;28;20027;-84
2021/12/08 07:07:02;;;;;;;5.32;4.82;;;3.70;99.90;;;;;;4995306;28;20042;-85
2021/12/08 07:10:00;;;;;;;15.52;5.40;;;3.60;99.90;;;;;;4995344;28;20042;-85
2021/12/08 07:12:28;;;;;;;6.28;4.93;;;3.70;99.90;;;;;;4991116;28;20497;-84
2021/12/08 07:15:03;;;;;;;4.15;3.45;;;3.60;99.90;;;;;;5014529;28;20054;-78
2021/12/08 07:17:33;;;;;;;4.38;3.45;;;3.60;99.90;;;;;;5009280;28;20046;-82
2021/12/08 07:20:18;;;;;;;5.90;4.80;;;3.70;99.90;;;;;;4998098;28;20039;-83
2021/12/08 07:22:48;;;;;;;4.57;3.72;;;3.70;99.90;;;;;;4998750;28;20506;-82
2021/12/08 07:25:17;;;;;;;4.43;3.50;;;3.80;99.90;;;;;;5011293;28;20375;-82
2021/12/08 07:27:45;;;;;;;9.13;3.90;;;3.70;99.90;;;;;;5009187;28;20379;-84
2021/12/08 07:30:22;;;;;;;7.65;5.38;;;3.70;99.90;;;;;;4994812;28;20364;-85
2021/12/08 07:32:49;;;;;;;4.40;3.92;;;3.70;99.90;;;;;;4995336;28;20487;-85
2021/12/08 07:35:21;;;;;;;23.10;20.63;;;3.80;99.90;;;;;;4994911;28;20034;-83
2021/12/08 07:37:48;;;;;;;11.82;8.50;;;3.80;99.90;;;;;;4995770;28;20460;-85
2021/12/08 07:40:27;;;;;;;5.68;5.18;;;3.80;99.90;;;;;;4994542;28;20039;-84
2021/12/08 07:42:59;;;;;;;12.73;9.27;;;3.80;99.90;;;;;;4994875;28;20042;-83
2021/12/08 07:45:31;;;;;;;4.55;4.10;;;3.80;99.90;;;;;;5000029;28;20041;-81
2021/12/08 07:48:00;;;;;;;17.30;12.43;;;3.90;99.90;;;;;;5013753;28;20029;-81
2021/12/08 07:50:49;;;;;;;40.25;36.03;;;3.90;99.90;;;;;;5013735;28;20037;-81
2021/12/08 07:53:18;;;;;;;25.05;22.23;;;3.90;99.90;;;;;;5013368;28;20379;-81
2021/12/08 07:55:48;;;;;;;28.30;24.85;;;3.80;99.90;;;;;;5014165;28;20045;-81
2021/12/08 07:58:19;;;;;;;24.38;20.10;;;3.80;99.90;;;;;;5013371;28;20061;-81
2021/12/08 08:00:56;;;;;;;9.63;7.10;;;3.80;99.90;;;;;;5013879;28;20037;-81
2021/12/08 08:03:28;;;;;;;12.98;11.27;;;3.80;99.90;;;;;;5012475;28;20050;-80
2021/12/08 08:05:55;;;;;;;8.77;7.70;;;3.80;99.90;;;;;;5013782;28;20042;-82
2021/12/08 08:08:24;;;;;;;14.40;8.73;;;3.90;99.90;;;;;;4995587;28;20074;-81
2021/12/08 08:10:57;;;;;;;7.90;7.03;;;3.90;99.90;;;;;;5013552;28;20034;-80
2021/12/08 08:13:25;;;;;;;7.43;5.18;;;3.90;99.90;;;;;;5013635;28;20046;-80
2021/12/08 08:15:57;;;;;;;6.50;4.30;;;4.00;99.90;;;;;;5013566;28;20038;-80
2021/12/08 08:18:28;;;;;;;5.65;3.47;;;4.10;99.90;;;;;;5013050;28;20042;-80
2021/12/08 08:20:59;;;;;;;5.45;4.82;;;4.20;99.90;;;;;;5015089;28;20044;-80
2021/12/08 08:23:29;;;;;;;4.95;4.45;;;4.20;99.90;;;;;;4997149;28;20391;-79
2021/12/08 08:25:56;;;;;;;5.30;4.55;;;4.30;99.90;;;;;;5014558;28;20038;-82
2021/12/08 08:28:23;;;;;;;13.25;4.38;;;4.30;99.90;;;;;;5013647;28;20034;-81
2021/12/08 08:31:13;;;;;;;4.03;3.63;;;4.40;99.90;;;;;;5013786;28;20038;-82
2021/12/08 08:33:42;;;;;;;4.63;3.65;;;4.30;99.90;;;;;;5013688;28;20471;-81
2021/12/08 08:36:13;;;;;;;5.38;3.58;;;4.40;99.90;;;;;;5013035;28;20030;-81
2021/12/08 08:38:56;;;;;;;7.28;3.00;;;4.40;99.90;;;;;;5012884;28;20399;-82
2021/12/08 08:41:30;;;;;;;5.85;4.10;;;4.40;99.90;;;;;;5012433;28;20494;-82
2021/12/08 08:44:00;;;;;;;4.65;3.70;;;4.50;99.90;;;;;;5013756;28;20045;-82
2021/12/08 08:46:34;;;;;;;4.65;4.22;;;4.60;99.90;;;;;;5013608;28;20045;-82
2021/12/08 08:49:17;;;;;;;4.55;4.15;;;4.60;99.90;;;;;;5013023;28;20056;-80
2021/12/08 08:52:00;;;;;;;5.55;3.60;;;4.60;99.90;;;;;;5013166;28;20518;-82
2021/12/08 08:54:30;;;;;;;5.78;3.50;;;4.70;99.90;;;;;;5013030;28;20041;-82
2021/12/08 08:57:04;;;;;;;6.43;3.95;;;4.70;99.90;;;;;;5013048;28;20443;-82
2021/12/08 08:59:35;;;;;;;6.05;4.50;;;4.80;99.90;;;;;;5013997;28;20387;-82
2021/12/08 09:02:07;;;;;;;4.22;3.55;;;4.90;99.90;;;;;;5012671;28;20038;-81
2021/12/08 09:04:41;;;;;;;6.53;3.65;;;4.90;99.90;;;;;;5013007;28;20418;-82
2021/12/08 09:07:15;;;;;;;12.27;4.05;;;5.00;99.90;;;;;;4993794;28;20050;-81
2021/12/08 09:09:45;;;;;;;5.05;4.32;;;5.00;99.90;;;;;;4995356;28;20046;-82
2021/12/08 09:12:17;;;;;;;4.70;3.45;;;5.10;99.90;;;;;;5012643;28;20387;-82
2021/12/08 09:14:52;;;;;;;5.00;3.67;;;5.10;99.90;;;;;;5012425;28;20042;-82
2021/12/08 09:17:41;;;;;;;5.60;4.47;;;5.10;99.90;;;;;;5012190;28;20383;-82
2021/12/08 09:20:27;;;;;;;5.57;4.53;;;5.10;99.90;;;;;;5011867;28;20045;-81
2021/12/08 09:23:27;;;;;;;6.55;5.68;;;5.20;99.90;;;;;;5012497;28;20347;-82
2021/12/08 09:25:57;;;;;;;10.60;5.75;;;5.20;99.90;;;;;;5008343;28;20041;-82
2021/12/08 09:28:35;;;;;;;10.27;8.75;;;5.20;99.90;;;;;;5011109;28;20046;-82
2021/12/08 09:31:16;;;;;;;64.78;46.38;;;5.20;99.90;;;;;;5012399;28;20030;-82
2021/12/08 09:33:50;;;;;;;23.50;19.48;;;5.30;99.90;;;;;;5012632;28;20033;-82
2021/12/08 09:36:21;;;;;;;69.18;51.05;;;5.30;99.90;;;;;;5012516;28;20038;-82
2021/12/08 09:38:54;;;;;;;18.70;16.58;;;5.40;99.90;;;;;;4995117;28;20117;-82
2021/12/08 09:41:37;;;;;;;58.63;36.67;;;5.50;99.90;;;;;;5011979;28;20122;-82
2021/12/08 09:44:12;;;;;;;21.38;13.65;;;5.50;99.90;;;;;;5012303;28;20030;-81
2021/12/08 09:46:44;;;;;;;48.45;31.63;;;5.50;99.90;;;;;;5012458;28;20494;-83
2021/12/08 09:49:14;;;;;;;67.43;43.80;;;5.60;99.90;;;;;;5024112;28;20053;-81
2021/12/08 09:51:42;;;;;;;13.57;10.55;;;5.50;99.90;;;;;;5036608;28;20038;-81
2021/12/08 09:54:08;;;;;;;47.13;32.70;;;5.60;99.90;;;;;;5035128;28;20025;-80
2021/12/08 09:56:35;;;;;;;19.38;14.30;;;5.50;99.90;;;;;;5015002;28;20034;-83
2021/12/08 09:59:05;;;;;;;34.63;25.40;;;5.60;99.90;;;;;;5012401;28;20034;-82
2021/12/08 10:01:33;;;;;;;31.45;19.50;;;5.60;99.90;;;;;;5012552;28;20057;-82
2021/12/08 10:04:00;;;;;;;60.03;39.78;;;5.60;99.90;;;;;;5012252;28;20391;-82
2021/12/08 10:06:26;;;;;;;88.85;53.70;;;5.60;99.90;;;;;;4994869;28;20050;-82
2021/12/08 10:08:58;;;;;;;115.57;89.82;;;5.60;99.90;;;;;;5015433;28;20053;-82
2021/12/08 10:11:27;;;;;;;13.68;12.30;;;5.70;99.90;;;;;;5016389;28;20487;-82
2021/12/08 10:13:54;;;;;;;71.25;55.10;;;5.70;99.90;;;;;;5016142;28;20467;-83
2021/12/08 10:16:21;;;;;;;25.65;22.98;;;5.70;99.90;;;;;;5015324;28;20038;-82
2021/12/08 10:18:48;;;;;;;44.47;30.05;;;5.70;99.90;;;;;;5015978;28;20038;-82
2021/12/08 10:21:15;;;;;;;17.30;8.85;;;5.60;99.90;;;;;;5014898;28;20045;-82
2021/12/08 10:23:44;;;;;;;101.90;82.10;;;5.70;99.90;;;;;;5015940;28;20060;-82
2021/12/08 10:26:25;;;;;;;12.60;8.27;;;5.70;99.90;;;;;;5014930;28;20041;-82
2021/12/08 10:28:56;;;;;;;16.98;13.80;;;5.70;99.90;;;;;;4999007;28;20042;-82
2021/12/08 10:31:31;;;;;;;10.90;9.55;;;5.70;99.90;;;;;;5015976;28;20030;-81
2021/12/08 10:34:06;;;;;;;8.93;8.10;;;5.80;99.90;;;;;;5016400;28;20034;-81
2021/12/08 10:36:47;;;;;;;7.88;6.57;;;5.80;99.90;;;;;;5016192;28;20034;-81
2021/12/08 10:39:19;;;;;;;13.35;8.43;;;5.80;99.90;;;;;;5015588;28;20038;-81
2021/12/08 10:41:57;;;;;;;8.15;7.03;;;5.80;99.90;;;;;;5015701;28;20037;-82
2021/12/08 10:44:44;;;;;;;8.73;6.03;;;5.80;99.90;;;;;;5014712;28;20379;-82
2021/12/08 10:47:18;;;;;;;9.63;6.47;;;5.80;99.90;;;;;;5014797;28;20046;-82
2021/12/08 10:55:03;;;;;;;7.20;6.25;;;5.90;99.90;;;;;;5015071;28;19914;-81
2021/12/08 10:57:32;;;;;;;6.90;5.90;;;5.80;99.90;;;;;;5014396;28;20038;-81
2021/12/08 11:00:04;;;;;;;8.13;6.13;;;5.80;99.90;;;;;;5015188;28;20037;-81
2021/12/08 11:02:45;;;;;;;7.18;6.35;;;5.80;99.90;;;;;;5014562;28;20042;-81
2021/12/08 11:05:24;;;;;;;7.28;5.88;;;5.80;99.90;;;;;;4997330;28;20042;-81
2021/12/08 11:08:15;;;;;;;5.38;4.88;;;5.90;99.90;;;;;;5015431;28;20489;-81
2021/12/08 11:10:48;;;;;;;4.80;4.25;;;5.90;99.90;;;;;;4996782;28;20049;-81
2021/12/08 11:13:18;;;;;;;9.55;7.22;;;5.90;99.90;;;;;;5014299;28;20479;-80
2021/12/08 11:15:45;;;;;;;6.57;5.55;;;5.90;99.90;;;;;;5014246;28;20030;-80
2021/12/08 11:18:19;;;;;;;6.85;6.13;;;5.90;99.90;;;;;;5014165;28;20041;-81
2021/12/08 11:20:54;;;;;;;6.55;5.78;;;5.90;99.90;;;;;;5014674;28;20053;-82
2021/12/08 11:26:18;;;;;;;6.55;5.32;;;5.80;99.90;;;;;;5014476;28;20080;-80
2021/12/08 11:28:52;;;;;;;5.63;5.18;;;5.90;99.90;;;;;;5014589;28;20034;-80
2021/12/08 11:31:19;;;;;;;7.38;6.68;;;5.90;99.90;;;;;;5014081;28;20053;-80
2021/12/08 11:33:54;;;;;;;9.73;6.50;;;5.90;99.90;;;;;;5014613;28;20458;-82
2021/12/08 11:36:24;;;;;;;7.60;6.75;;;5.90;99.90;;;;;;4996541;28;20038;-80
2021/12/08 11:38:51;;;;;;;10.68;7.80;;;5.80;99.90;;;;;;5014355;28;20034;-81
2021/12/08 11:41:38;;;;;;;12.25;7.60;;;5.90;99.90;;;;;;5013522;28;20486;-81
2021/12/08 11:44:13;;;;;;;6.80;6.20;;;5.90;99.90;;;;;;5014331;28;20037;-81
2021/12/08 11:46:55;;;;;;;7.40;6.70;;;5.90;99.90;;;;;;4996083;28;20436;-80
2021/12/08 11:49:22;;;;;;;9.05;8.15;;;6.00;99.90;;;;;;5013473;28;20034;-81
2021/12/08 11:51:51;;;;;;;8.00;7.18;;;6.00;99.90;;;;;;5014198;28;20036;-82
2021/12/08 11:54:29;;;;;;;8.52;7.75;;;6.10;99.90;;;;;;5013663;28;20033;-81
2021/12/08 11:57:03;;;;;;;9.68;7.85;;;6.10;99.90;;;;;;5014253;28;20045;-81
2021/12/08 11:59:29;;;;;;;9.82;8.20;;;6.10;99.90;;;;;;5013634;28;20041;-81
2021/12/08 12:01:56;;;;;;;13.00;7.60;;;6.00;99.90;;;;;;5013548;28;20049;-81
2021/12/08 12:04:22;;;;;;;9.43;8.35;;;6.10;99.90;;;;;;5013582;28;20041;-81
2021/12/08 12:06:48;;;;;;;9.23;6.40;;;6.10;99.90;;;;;;5013665;28;20030;-81
2021/12/08 12:09:14;;;;;;;8.27;6.78;;;6.10;99.90;;;;;;5013050;28;20046;-81
2021/12/08 12:11:40;;;;;;;13.00;7.90;;;6.10;99.90;;;;;;5013534;28;20045;-82
2021/12/08 12:14:07;;;;;;;12.25;7.90;;;6.10;99.90;;;;;;5013883;28;20042;-81
2021/12/08 12:16:33;;;;;;;8.68;7.35;;;6.10;99.90;;;;;;5012970;28;20037;-82
2021/12/08 12:19:04;;;;;;;8.90;8.00;;;6.00;99.90;;;;;;5012719;28;20045;-82
2021/12/08 12:21:37;;;;;;;8.90;7.72;;;6.00;99.90;;;;;;5013160;28;20049;-82
2021/12/08 12:24:28;;;;;;;9.18;8.27;;;6.00;99.90;;;;;;5013025;28;20407;-82
2021/12/08 12:27:07;;;;;;;8.32;7.35;;;6.00;99.90;;;;;;5013580;28;20049;-82
2021/12/08 12:29:52;;;;;;;9.32;7.43;;;6.00;99.90;;;;;;5013107;28;20267;-82
2021/12/08 12:32:54;;;;;;;8.20;7.45;;;5.90;99.90;;;;;;5012479;28;20045;-82
2021/12/08 12:35:27;;;;;;;8.05;6.63;;;5.90;99.90;;;;;;5012910;28;20033;-82
2021/12/08 12:38:12;;;;;;;11.98;8.00;;;5.90;99.90;;;;;;4995888;28;20042;-82
2021/12/08 12:40:51;;;;;;;7.93;7.18;;;6.00;99.90;;;;;;5013172;28;20053;-82
2021/12/08 12:43:35;;;;;;;11.73;8.07;;;5.90;99.90;;;;;;5013996;28;20030;-82
2021/12/08 12:46:13;;;;;;;10.35;8.70;;;5.90;99.90;;;;;;5014262;28;20030;-82
2021/12/08 12:48:40;;;;;;;9.32;7.50;;;5.90;99.90;;;;;;5013491;28;20046;-82
2021/12/08 12:51:09;;;;;;;13.48;8.70;;;5.90;99.90;;;;;;5013527;28;20479;-82
2021/12/08 12:53:40;;;;;;;7.75;6.95;;;5.90;99.90;;;;;;5011907;28;20053;-82
2021/12/08 12:56:11;;;;;;;;;;;5.90;99.90;;;;;;5014900;28;20033;-81
2021/12/08 12:58:43;;;;;;;8.35;7.53;;;5.90;99.90;;;;;;5012886;28;19909;-81
2021/12/08 13:01:12;;;;;;;9.27;8.38;;;5.80;99.90;;;;;;5012762;28;20030;-81
2021/12/08 13:03:43;;;;;;;12.68;8.50;;;5.80;99.90;;;;;;5012362;28;20053;-82
2021/12/08 13:06:13;;;;;;;10.35;8.98;;;5.80;99.90;;;;;;5012747;28;20038;-81
2021/12/08 13:08:47;;;;;;;10.70;9.38;;;5.80;99.90;;;;;;5012223;28;20509;-81
2021/12/08 13:11:22;;;;;;;8.50;7.70;;;5.90;99.90;;;;;;5012790;28;20041;-82
2021/12/08 13:13:52;;;;;;;10.77;9.68;;;5.90;99.90;;;;;;5012566;28;20050;-81
2021/12/08 13:16:25;;;;;;;13.25;9.82;;;5.90;99.90;;;;;;5011869;28;20387;-81
2021/12/08 13:19:01;;;;;;;21.15;16.00;;;5.80;99.90;;;;;;5012542;28;20033;-81
2021/12/08 13:21:42;;;;;;;12.45;10.32;;;5.90;99.90;;;;;;5011888;28;20036;-81
2021/12/08 13:24:33;;;;;;;9.45;8.60;;;5.80;99.90;;;;;;5012868;28;20034;-81
2021/12/08 13:27:26;;;;;;;83.65;59.00;;;5.90;99.90;;;;;;5012462;28;20041;-81
2021/12/08 13:30:10;;;;;;;101.07;80.05;;;5.90;99.90;;;;;;5012573;28;20030;-82
2021/12/08 13:32:46;;;;;;;123.55;102.25;;;5.90;99.90;;;;;;5011703;28;20224;-81
2021/12/08 13:35:31;;;;;;;129.23;86.65;;;5.80;99.90;;;;;;4995065;28;20383;-82
2021/12/08 13:37:58;;;;;;;22.67;17.33;;;5.90;99.90;;;;;;5012652;28;20033;-81
2021/12/08 13:40:53;;;;;;;12.32;9.95;;;5.90;99.90;;;;;;5011860;28;20426;-81
2021/12/08 13:43:40;;;;;;;11.95;10.10;;;5.80;99.90;;;;;;5011911;28;20045;-81
2021/12/08 13:46:09;;;;;;;49.92;29.27;;;5.80;99.90;;;;;;5012703;28;20406;-81
2021/12/08 13:48:56;;;;;;;20.30;14.95;;;5.90;99.90;;;;;;5011716;28;20049;-81
2021/12/08 13:51:22;;;;;;;199.55;126.38;;;5.90;99.90;;;;;;5011644;28;20041;-81
2021/12/08 13:54:25;;;;;;;22.33;14.95;;;5.90;99.90;;;;;;5013907;28;20030;-81
2021/12/08 13:56:53;;;;;;;14.35;10.73;;;5.90;99.90;;;;;;5022749;28;20034;-81